Time;durP1;ratioP1;P1;durP2;ratioP2;P2;SDS_P1;SDS_P2;PMS_P1;PMS_P2;Temp;Humidity;BMP_temperature;BMP_pressure;BME280_temperature;BME280_humidity;BME280_pressure;Samples;Min_cycle;Max_cycle;Signal;HPM_P1;HPM_P2
2023/09/09 00:02:54;;;;;;;7.63;6.93;;;23.50;75.20;;;;;;10369627;28;20641;-58
2023/09/09 00:07:55;;;;;;;7.53;6.93;;;23.50;75.20;;;;;;10386716;28;20033;-58
2023/09/09 00:12:58;;;;;;;8.27;7.40;;;23.50;75.20;;;;;;10409882;28;20049;-58
2023/09/09 00:18:02;;;;;;;7.97;7.18;;;23.50;75.10;;;;;;10410055;28;20029;-58
2023/09/09 00:23:12;;;;;;;7.68;6.97;;;23.50;75.10;;;;;;10395167;28;20072;-58
2023/09/09 00:28:14;;;;;;;7.03;6.43;;;23.40;75.00;;;;;;10377839;28;20025;-58
2023/09/09 00:33:15;;;;;;;7.25;6.63;;;23.40;75.10;;;;;;10377748;28;20507;-58
2023/09/09 00:38:17;;;;;;;7.90;7.20;;;23.40;75.00;;;;;;10368351;28;20038;-59
2023/09/09 00:43:18;;;;;;;7.38;6.63;;;23.40;75.10;;;;;;10368372;28;20030;-59
2023/09/09 00:48:19;;;;;;;8.25;7.45;;;23.40;75.00;;;;;;10368299;28;20033;-58
2023/09/09 00:53:19;;;;;;;7.07;6.40;;;23.40;75.00;;;;;;10367779;28;20034;-58
2023/09/09 00:58:23;;;;;;;7.47;6.78;;;23.40;74.90;;;;;;10370828;28;20038;-59
2023/09/09 01:03:24;;;;;;;7.43;6.70;;;23.40;74.90;;;;;;10367678;28;20069;-58
2023/09/09 01:08:29;;;;;;;7.50;6.82;;;23.40;74.90;;;;;;10367932;28;20518;-58
2023/09/09 01:13:30;;;;;;;7.90;7.20;;;23.40;74.90;;;;;;10367265;28;20048;-59
2023/09/09 01:18:33;;;;;;;7.10;6.40;;;23.40;74.90;;;;;;10402489;28;20031;-59
2023/09/09 01:23:35;;;;;;;7.10;5.80;;;23.40;74.80;;;;;;10387874;28;20472;-58
2023/09/09 01:28:36;;;;;;;6.90;6.30;;;23.40;74.80;;;;;;10382910;28;20033;-59
2023/09/09 01:33:37;;;;;;;6.57;5.97;;;23.40;74.80;;;;;;10392055;28;20048;-57
2023/09/09 01:38:38;;;;;;;6.40;5.80;;;23.40;74.80;;;;;;10408182;28;20033;-58
2023/09/09 01:43:38;;;;;;;6.32;5.72;;;23.40;74.80;;;;;;10407695;28;20056;-59
2023/09/09 01:48:39;;;;;;;6.60;6.00;;;23.40;74.80;;;;;;10407925;28;20040;-59
2023/09/09 01:53:40;;;;;;;7.22;6.60;;;23.30;74.70;;;;;;10407503;28;20522;-59
2023/09/09 01:58:41;;;;;;;6.65;6.05;;;23.40;74.70;;;;;;10407694;28;20036;-59
2023/09/09 02:03:41;;;;;;;7.10;6.40;;;23.30;74.60;;;;;;10407242;28;20029;-59
2023/09/09 02:08:42;;;;;;;6.82;6.20;;;23.40;74.70;;;;;;10386153;28;20501;-59
2023/09/09 02:13:43;;;;;;;7.40;6.15;;;23.30;74.60;;;;;;10366299;28;20050;-58
2023/09/09 02:18:43;;;;;;;6.43;5.82;;;23.30;74.60;;;;;;10385167;28;20026;-57
2023/09/09 02:23:44;;;;;;;6.90;6.30;;;23.30;74.60;;;;;;10392040;28;20164;-57
2023/09/09 02:28:46;;;;;;;6.30;5.70;;;23.30;74.60;;;;;;10423384;28;20055;-58
2023/09/09 02:33:47;;;;;;;6.82;6.22;;;23.30;74.50;;;;;;10373013;28;20670;-58
2023/09/09 02:38:47;;;;;;;5.68;5.18;;;23.30;74.50;;;;;;10386512;28;20029;-58
2023/09/09 02:43:48;;;;;;;6.63;6.03;;;23.30;74.50;;;;;;10372457;28;20041;-59
2023/09/09 02:48:49;;;;;;;6.68;6.07;;;23.30;74.50;;;;;;10372659;28;20022;-58
2023/09/09 02:53:50;;;;;;;6.88;6.28;;;23.30;74.50;;;;;;10371940;28;20041;-58
2023/09/09 02:58:50;;;;;;;7.50;6.80;;;23.20;74.40;;;;;;10372566;28;20034;-58
2023/09/09 03:03:51;;;;;;;6.63;6.03;;;23.30;74.40;;;;;;10372000;28;20030;-59
2023/09/09 03:08:52;;;;;;;6.75;6.05;;;23.20;74.40;;;;;;10372420;28;20365;-57
2023/09/09 03:13:53;;;;;;;7.60;6.90;;;23.20;74.40;;;;;;10371172;28;20041;-58
2023/09/09 03:18:53;;;;;;;7.57;6.88;;;23.30;74.40;;;;;;10408548;28;20520;-58
2023/09/09 03:23:54;;;;;;;6.97;6.28;;;23.20;74.30;;;;;;10390299;28;20038;-58
2023/09/09 03:28:55;;;;;;;6.93;6.20;;;23.20;74.30;;;;;;10389804;28;20029;-58
2023/09/09 03:33:55;;;;;;;6.40;5.80;;;23.20;74.30;;;;;;10370608;28;20440;-58
2023/09/09 03:39:01;;;;;;;6.93;6.22;;;23.20;74.30;;;;;;10369332;28;20052;-58
2023/09/09 03:44:02;;;;;;;6.68;6.07;;;23.20;74.30;;;;;;10370402;28;20120;-58
2023/09/09 03:49:03;;;;;;;6.90;6.30;;;23.20;74.20;;;;;;10370667;28;20025;-58
2023/09/09 03:54:03;;;;;;;6.15;5.65;;;23.20;74.80;;;;;;10377434;28;20029;-59
2023/09/09 03:59:04;;;;;;;6.55;5.95;;;23.20;74.20;;;;;;10376568;28;20030;-58
2023/09/09 04:04:05;;;;;;;7.50;6.80;;;23.20;74.20;;;;;;10369428;28;20038;-58
2023/09/09 04:09:06;;;;;;;6.90;6.28;;;23.20;74.20;;;;;;10369723;28;20057;-58
2023/09/09 04:14:07;;;;;;;6.63;6.03;;;23.20;74.20;;;;;;10369115;28;20046;-59
2023/09/09 04:19:07;;;;;;;6.63;5.85;;;23.10;74.10;;;;;;10408501;28;20040;-59
2023/09/09 04:24:08;;;;;;;6.60;6.00;;;23.10;74.10;;;;;;10388959;28;20033;-58
2023/09/09 04:29:09;;;;;;;6.93;6.32;;;23.10;74.20;;;;;;10387467;28;20091;-56
2023/09/09 04:34:11;;;;;;;6.90;6.20;;;23.10;74.30;;;;;;10384576;28;20465;-58
2023/09/09 04:39:15;;;;;;;6.78;6.18;;;23.10;74.10;;;;;;10383775;28;20137;-58
2023/09/09 04:44:16;;;;;;;6.82;6.13;;;23.10;74.10;;;;;;10375866;28;20434;-58
2023/09/09 04:49:17;;;;;;;6.82;5.97;;;23.10;74.10;;;;;;10379944;28;20034;-59
2023/09/09 04:54:18;;;;;;;7.70;7.00;;;23.10;74.10;;;;;;10406061;28;20053;-58
2023/09/09 04:59:18;;;;;;;7.35;6.65;;;23.10;74.00;;;;;;10393956;28;20060;-59
2023/09/09 05:04:19;;;;;;;7.35;6.65;;;23.10;74.10;;;;;;10408475;28;20037;-58
2023/09/09 05:09:20;;;;;;;15.57;8.40;;;23.10;74.00;;;;;;10400758;28;20050;-57
2023/09/09 05:14:21;;;;;;;8.48;7.57;;;23.10;74.20;;;;;;10381946;28;20120;-56
2023/09/09 05:19:22;;;;;;;13.60;7.97;;;23.30;74.10;;;;;;10407778;28;20053;-58
2023/09/09 05:24:23;;;;;;;12.38;8.35;;;23.40;74.00;;;;;;10381249;28;20038;-59
2023/09/09 05:29:23;;;;;;;12.38;9.10;;;23.40;74.10;;;;;;10384938;28;20030;-59
2023/09/09 05:34:24;;;;;;;17.83;10.07;;;23.40;73.80;;;;;;10366158;28;20033;-60
2023/09/09 05:39:25;;;;;;;16.73;9.40;;;23.50;73.70;;;;;;10366519;28;20071;-59
2023/09/09 05:44:25;;;;;;;12.13;9.27;;;23.50;73.80;;;;;;10365965;28;20036;-58
2023/09/09 05:49:26;;;;;;;10.50;8.77;;;23.50;73.20;;;;;;10366327;28;20038;-58
2023/09/09 05:54:27;;;;;;;11.48;8.90;;;23.50;73.20;;;;;;10372872;28;20068;-58
2023/09/09 05:59:28;;;;;;;16.80;8.82;;;23.50;73.70;;;;;;10372437;28;20041;-58
2023/09/09 06:04:28;;;;;;;14.98;9.48;;;23.40;73.60;;;;;;10373414;28;20519;-55
2023/09/09 06:09:29;;;;;;;15.88;8.57;;;23.40;73.70;;;;;;10397449;28;20056;-56
2023/09/09 06:14:30;;;;;;;21.52;9.73;;;23.40;73.30;;;;;;10410415;28;20053;-57
2023/09/09 06:19:31;;;;;;;24.67;10.90;;;23.40;73.60;;;;;;10413330;28;20061;-57
2023/09/09 06:24:31;;;;;;;23.98;10.05;;;23.40;73.70;;;;;;10386166;28;20458;-58
2023/09/09 06:29:32;;;;;;;21.05;9.75;;;23.40;73.80;;;;;;10391473;28;20033;-57
2023/09/09 06:34:33;;;;;;;20.45;10.15;;;23.40;74.00;;;;;;10372636;28;20111;-58
2023/09/09 06:39:34;;;;;;;21.05;9.85;;;23.40;74.10;;;;;;10389278;28;20079;-58
2023/09/09 06:44:35;;;;;;;18.85;10.27;;;23.40;74.10;;;;;;10412810;28;20531;-58
2023/09/09 06:49:35;;;;;;;30.35;12.45;;;23.40;74.10;;;;;;10412909;28;20037;-58
2023/09/09 06:54:36;;;;;;;24.60;12.43;;;23.40;74.00;;;;;;10411831;28;20579;-58
2023/09/09 06:59:37;;;;;;;20.92;12.07;;;23.40;74.10;;;;;;10380244;28;20053;-58
2023/09/09 07:04:38;;;;;;;26.77;12.20;;;23.40;74.20;;;;;;10378872;28;20092;-57
2023/09/09 07:09:39;;;;;;;30.05;14.45;;;23.40;74.40;;;;;;10390019;28;20052;-58
2023/09/09 07:14:40;;;;;;;31.98;14.75;;;23.50;74.50;;;;;;10407896;28;20053;-59
2023/09/09 07:19:40;;;;;;;30.45;13.05;;;23.50;74.50;;;;;;10370644;28;20042;-58
2023/09/09 07:24:41;;;;;;;26.63;13.52;;;23.50;74.40;;;;;;10382065;28;20036;-58
2023/09/09 07:29:42;;;;;;;27.35;13.93;;;23.40;74.40;;;;;;10390248;28;20083;-58
2023/09/09 07:34:43;;;;;;;20.55;12.90;;;23.40;74.50;;;;;;10370630;28;20037;-58
2023/09/09 07:39:50;;;;;;;34.95;17.02;;;23.40;74.60;;;;;;10370882;28;20543;-58
2023/09/09 07:44:53;;;;;;;26.98;18.50;;;23.40;74.70;;;;;;10370797;28;20109;-57
2023/09/09 07:49:54;;;;;;;26.00;15.30;;;23.30;74.50;;;;;;10370707;28;20372;-60
2023/09/09 07:54:54;;;;;;;24.40;17.48;;;23.30;74.50;;;;;;10376770;28;20029;-58
2023/09/09 07:59:55;;;;;;;28.73;20.17;;;23.30;74.60;;;;;;10370016;28;20061;-58
2023/09/09 08:04:56;;;;;;;31.15;18.63;;;23.30;74.60;;;;;;10377422;28;20034;-58
2023/09/09 08:09:57;;;;;;;30.42;22.10;;;23.40;74.70;;;;;;10395802;28;20037;-60
2023/09/09 08:15:09;;;;;;;29.42;17.95;;;23.40;74.70;;;;;;10394731;28;20053;-57
2023/09/09 08:20:10;;;;;;;26.40;16.80;;;23.50;74.70;;;;;;10376134;28;20038;-60
2023/09/09 08:25:12;;;;;;;37.38;18.40;;;23.50;74.70;;;;;;10381386;28;20045;-60
2023/09/09 08:30:15;;;;;;;25.40;18.33;;;23.60;74.90;;;;;;10404282;28;20029;-59
2023/09/09 08:35:16;;;;;;;36.53;18.10;;;23.60;75.10;;;;;;10367740;28;20409;-56
2023/09/09 08:40:18;;;;;;;35.30;17.25;;;23.60;75.20;;;;;;10367328;28;20042;-57
2023/09/09 08:45:50;;;;;;;27.70;17.92;;;23.60;75.40;;;;;;10371679;28;20038;-56
2023/09/09 08:50:53;;;;;;;30.35;20.77;;;23.60;75.60;;;;;;10375914;28;20045;-58
2023/09/09 08:55:56;;;;;;;27.25;19.77;;;23.60;75.70;;;;;;10407145;28;20491;-58
2023/09/09 09:00:59;;;;;;;24.77;19.65;;;23.60;75.70;;;;;;10408027;28;20030;-56
2023/09/09 09:06:03;;;;;;;24.23;19.17;;;23.70;76.00;;;;;;10380348;28;20022;-57
2023/09/09 09:11:06;;;;;;;25.77;18.33;;;23.70;75.80;;;;;;10407432;28;20041;-56
2023/09/09 09:16:07;;;;;;;20.77;17.63;;;23.70;76.10;;;;;;10393562;28;20052;-56
2023/09/09 09:21:10;;;;;;;23.60;17.63;;;23.70;76.10;;;;;;10404534;28;20026;-57
2023/09/09 09:26:29;;;;;;;28.23;18.08;;;23.70;76.30;;;;;;10367723;28;20038;-56
2023/09/09 09:31:30;;;;;;;;;;;23.80;76.30;;;;;;10394608;28;20148;-58
2023/09/09 09:36:31;;;;;;;28.50;18.65;;;23.80;76.40;;;;;;10374605;28;19916;-56
2023/09/09 09:41:31;;;;;;;30.73;19.60;;;23.80;76.50;;;;;;10373755;28;20038;-56
2023/09/09 09:46:32;;;;;;;22.92;15.32;;;23.90;76.50;;;;;;10398762;28;20029;-56
2023/09/09 09:51:43;;;;;;;28.95;16.95;;;23.90;76.60;;;;;;10414632;28;20029;-56
2023/09/09 09:56:45;;;;;;;24.73;16.15;;;24.00;76.60;;;;;;10414737;28;20084;-55
2023/09/09 10:01:48;;;;;;;31.00;16.65;;;24.00;76.60;;;;;;10414247;28;20072;-56
2023/09/09 10:06:52;;;;;;;26.80;14.73;;;24.00;76.60;;;;;;10393017;28;20034;-57
2023/09/09 10:12:15;;;;;;;27.58;15.82;;;24.00;76.60;;;;;;10381313;28;20113;-58
2023/09/09 10:17:17;;;;;;;28.40;14.35;;;24.10;76.90;;;;;;10408818;28;20132;-56
2023/09/09 10:22:19;;;;;;;36.47;17.40;;;24.00;76.90;;;;;;10378153;28;20116;-55
2023/09/09 10:27:20;;;;;;;21.52;15.48;;;24.00;76.70;;;;;;10387879;28;20033;-59
2023/09/09 10:32:22;;;;;;;27.75;15.70;;;24.00;76.60;;;;;;10392943;28;20455;-58
2023/09/09 10:37:24;;;;;;;26.30;15.30;;;24.00;76.50;;;;;;10376933;28;20022;-59
2023/09/09 10:42:25;;;;;;;30.73;16.08;;;24.10;76.40;;;;;;10403959;28;20064;-59
2023/09/09 10:47:25;;;;;;;26.85;13.20;;;24.10;76.40;;;;;;10412175;28;20123;-60
2023/09/09 10:52:33;;;;;;;17.83;12.60;;;24.10;76.30;;;;;;10413071;28;20029;-57
2023/09/09 10:57:34;;;;;;;16.98;11.30;;;24.10;76.20;;;;;;10397299;28;20103;-58
2023/09/09 11:02:47;;;;;;;19.20;12.18;;;24.10;76.00;;;;;;10412546;28;20033;-59
2023/09/09 11:07:48;;;;;;;13.88;11.13;;;24.20;75.90;;;;;;10411730;28;20049;-59
2023/09/09 11:12:52;;;;;;;14.65;10.50;;;24.20;75.70;;;;;;10390975;28;20046;-56
2023/09/09 11:17:53;;;;;;;11.52;10.30;;;24.20;75.50;;;;;;10400915;28;20042;-59
2023/09/09 11:22:55;;;;;;;15.27;10.23;;;24.20;75.40;;;;;;10399204;28;20038;-58
2023/09/09 11:27:57;;;;;;;22.50;11.35;;;24.20;75.40;;;;;;10375315;28;20049;-58
2023/09/09 11:32:58;;;;;;;20.70;10.35;;;24.20;74.90;;;;;;10384461;28;20076;-59
2023/09/09 11:38:03;;;;;;;16.73;8.85;;;24.20;74.80;;;;;;10397334;28;20076;-57
2023/09/09 11:43:04;;;;;;;13.10;8.88;;;24.30;74.70;;;;;;10376999;28;20497;-58
2023/09/09 11:48:05;;;;;;;13.85;8.75;;;24.20;74.50;;;;;;10397840;28;20044;-57
2023/09/09 11:53:08;;;;;;;14.73;9.32;;;24.30;74.30;;;;;;10410704;28;20534;-57
2023/09/09 11:58:08;;;;;;;12.48;8.55;;;24.40;74.40;;;;;;10409847;28;20523;-58
2023/09/09 12:03:09;;;;;;;11.18;8.15;;;24.40;74.80;;;;;;10394732;28;20498;-58
2023/09/09 12:08:10;;;;;;;23.45;8.75;;;24.40;74.90;;;;;;10389391;28;20039;-57
2023/09/09 12:13:12;;;;;;;12.05;8.20;;;24.50;75.00;;;;;;10409356;28;20055;-56
2023/09/09 12:18:13;;;;;;;9.45;7.68;;;24.40;75.00;;;;;;10402926;28;20105;-57
2023/09/09 12:23:29;;;;;;;12.30;8.25;;;24.40;75.10;;;;;;10381880;28;20041;-57
2023/09/09 12:28:30;;;;;;;11.05;8.45;;;24.40;75.10;;;;;;10380752;28;20033;-58
2023/09/09 12:33:47;;;;;;;9.63;7.93;;;24.40;75.10;;;;;;10368390;28;20477;-57
2023/09/09 12:38:50;;;;;;;12.65;8.68;;;24.40;75.10;;;;;;10368274;28;20497;-57
2023/09/09 12:43:52;;;;;;;11.70;8.00;;;24.40;75.10;;;;;;10388616;28;20427;-57
2023/09/09 12:48:57;;;;;;;10.32;8.23;;;24.40;75.20;;;;;;10408194;28;20726;-58
2023/09/09 12:53:58;;;;;;;9.40;7.53;;;24.40;75.20;;;;;;10408512;28;20033;-58
2023/09/09 12:58:59;;;;;;;9.88;7.85;;;24.40;75.30;;;;;;10407532;28;20040;-58
2023/09/09 13:04:00;;;;;;;8.82;7.80;;;24.40;75.30;;;;;;10408276;28;20488;-58
2023/09/09 13:09:02;;;;;;;8.70;7.03;;;24.40;75.20;;;;;;10407401;28;20029;-58
2023/09/09 13:14:03;;;;;;;10.30;7.88;;;24.40;75.30;;;;;;10407610;28;20060;-57
2023/09/09 13:19:03;;;;;;;8.82;8.00;;;24.40;75.30;;;;;;10407781;28;20026;-58
2023/09/09 13:24:05;;;;;;;11.55;8.10;;;24.30;75.30;;;;;;10384887;28;20037;-58
2023/09/09 13:29:05;;;;;;;12.00;8.60;;;24.30;75.30;;;;;;10385550;28;20025;-57
2023/09/09 13:34:06;;;;;;;15.38;8.38;;;24.30;75.40;;;;;;10366944;28;20462;-58
2023/09/09 13:39:07;;;;;;;11.98;8.90;;;24.30;75.40;;;;;;10365836;28;20417;-58
2023/09/09 13:44:08;;;;;;;10.07;7.55;;;24.30;75.40;;;;;;10366667;28;20041;-58
2023/09/09 13:49:08;;;;;;;13.32;7.88;;;24.30;75.40;;;;;;10375709;28;20029;-58
2023/09/09 13:54:09;;;;;;;13.57;9.32;;;24.30;75.40;;;;;;10368651;28;20042;-59
2023/09/09 13:59:10;;;;;;;15.77;9.15;;;24.30;75.50;;;;;;10374523;28;20041;-57
2023/09/09 14:04:11;;;;;;;9.68;8.40;;;24.20;75.40;;;;;;10399706;28;20113;-58
2023/09/09 14:09:11;;;;;;;11.10;8.52;;;24.30;75.30;;;;;;10407658;28;20033;-58
2023/09/09 14:14:17;;;;;;;10.35;8.07;;;24.30;75.30;;;;;;10410792;28;20060;-58
2023/09/09 14:19:18;;;;;;;10.75;8.50;;;24.30;75.20;;;;;;10400905;28;20025;-58
2023/09/09 14:24:19;;;;;;;11.18;8.50;;;24.20;75.20;;;;;;10389117;28;20730;-58
2023/09/09 14:29:19;;;;;;;10.73;8.27;;;24.20;75.10;;;;;;10392932;28;20036;-57
2023/09/09 14:34:20;;;;;;;9.45;8.15;;;24.20;75.10;;;;;;10379864;28;20038;-57
2023/09/09 14:39:21;;;;;;;10.50;8.77;;;24.20;75.20;;;;;;10372558;28;20497;-57
2023/09/09 14:44:21;;;;;;;13.43;9.30;;;24.20;75.10;;;;;;10372367;28;20026;-57
2023/09/09 14:49:22;;;;;;;12.00;7.68;;;24.20;75.20;;;;;;10372276;28;20048;-57
2023/09/09 14:54:23;;;;;;;10.82;8.40;;;24.20;75.10;;;;;;10372003;28;20030;-57
2023/09/09 14:59:23;;;;;;;9.98;8.20;;;24.20;75.10;;;;;;10378114;28;20030;-56
2023/09/09 15:04:24;;;;;;;10.48;7.63;;;24.20;75.10;;;;;;10386232;28;20033;-57
2023/09/09 15:09:25;;;;;;;10.55;7.78;;;24.20;75.00;;;;;;10391458;28;20029;-58
2023/09/09 15:14:26;;;;;;;11.50;7.43;;;24.20;75.10;;;;;;10383968;28;20049;-57
2023/09/09 15:19:26;;;;;;;7.75;6.95;;;24.20;75.00;;;;;;10381699;28;20036;-57
2023/09/09 15:24:27;;;;;;;8.13;7.30;;;24.20;75.00;;;;;;10374461;28;20370;-58
2023/09/09 15:29:28;;;;;;;7.93;7.13;;;24.20;74.90;;;;;;10395724;28;20029;-58
2023/09/09 15:34:29;;;;;;;9.82;7.53;;;24.20;74.90;;;;;;10412107;28;20357;-58
2023/09/09 15:39:30;;;;;;;10.63;7.53;;;24.20;74.90;;;;;;10411873;28;20037;-58
2023/09/09 15:44:30;;;;;;;8.88;7.38;;;24.20;74.90;;;;;;10411686;28;20746;-58
2023/09/09 15:49:31;;;;;;;10.98;7.43;;;24.20;74.90;;;;;;10411576;28;20080;-57
2023/09/09 15:54:32;;;;;;;11.73;7.47;;;24.20;74.90;;;;;;10411141;28;20048;-57
2023/09/09 15:59:32;;;;;;;8.07;6.75;;;24.20;74.80;;;;;;10411444;28;20039;-57
2023/09/09 16:04:33;;;;;;;10.98;7.90;;;24.20;74.80;;;;;;10392769;28;20029;-58
2023/09/09 16:09:34;;;;;;;9.23;8.00;;;24.20;74.80;;;;;;10369820;28;20492;-58
2023/09/09 16:14:35;;;;;;;9.60;7.60;;;24.20;75.00;;;;;;10372662;28;20048;-58
2023/09/09 16:19:35;;;;;;;10.88;6.68;;;24.20;74.90;;;;;;10410423;28;20087;-59
2023/09/09 16:24:36;;;;;;;7.90;7.10;;;24.20;74.80;;;;;;10396631;28;20033;-58
2023/09/09 16:29:37;;;;;;;8.32;6.78;;;24.20;75.00;;;;;;10392366;28;20588;-57
2023/09/09 16:34:37;;;;;;;10.93;7.38;;;24.20;75.00;;;;;;10378358;28;20087;-57
2023/09/09 16:39:39;;;;;;;10.43;7.75;;;24.10;75.10;;;;;;10368135;28;20061;-58
2023/09/09 16:44:40;;;;;;;9.70;7.78;;;24.10;75.10;;;;;;10367823;28;20032;-57
2023/09/09 16:49:42;;;;;;;8.65;7.32;;;24.10;75.10;;;;;;10368499;28;20045;-56
2023/09/09 16:54:43;;;;;;;8.20;6.78;;;24.10;75.30;;;;;;10367318;28;20026;-58
2023/09/09 16:59:44;;;;;;;10.65;6.88;;;24.10;75.20;;;;;;10367524;28;20030;-56
2023/09/09 17:04:44;;;;;;;9.05;7.63;;;24.10;75.20;;;;;;10367208;28;20254;-56
2023/09/09 17:09:45;;;;;;;9.55;7.28;;;24.10;75.50;;;;;;10370172;28;20036;-57
2023/09/09 17:14:46;;;;;;;9.35;8.00;;;24.10;75.50;;;;;;10390543;28;20041;-58
2023/09/09 17:19:46;;;;;;;9.90;7.22;;;24.10;75.50;;;;;;10407754;28;20120;-57
2023/09/09 17:24:48;;;;;;;7.90;7.10;;;24.10;76.00;;;;;;10379451;28;20029;-58
2023/09/09 17:29:49;;;;;;;9.23;7.38;;;24.00;75.40;;;;;;10402835;28;20108;-59
2023/09/09 17:34:49;;;;;;;8.40;7.28;;;24.10;75.50;;;;;;10386692;28;20524;-58
2023/09/09 17:39:50;;;;;;;8.68;7.47;;;24.10;75.50;;;;;;10407285;28;20041;-58
2023/09/09 17:44:51;;;;;;;9.57;7.20;;;24.00;75.50;;;;;;10398572;28;20536;-58
2023/09/09 17:49:51;;;;;;;9.90;7.30;;;24.00;75.50;;;;;;10380287;28;20045;-57
2023/09/09 17:54:52;;;;;;;17.25;8.50;;;24.00;75.50;;;;;;10406348;28;20036;-55
2023/09/09 17:59:53;;;;;;;10.77;7.57;;;24.00;75.90;;;;;;10384627;28;20042;-57
2023/09/09 18:04:54;;;;;;;11.73;7.85;;;24.10;75.70;;;;;;10378055;28;20492;-58
2023/09/09 18:09:55;;;;;;;21.13;7.78;;;24.10;76.00;;;;;;10374916;28;20500;-58
2023/09/09 18:14:56;;;;;;;8.80;7.75;;;24.10;76.10;;;;;;10400476;28;20053;-57
2023/09/09 18:19:57;;;;;;;11.20;8.30;;;24.10;76.20;;;;;;10390163;28;20037;-59
2023/09/09 18:24:57;;;;;;;11.93;8.15;;;24.10;76.30;;;;;;10387040;28;20481;-58
2023/09/09 18:29:59;;;;;;;11.48;8.02;;;24.10;76.40;;;;;;10393572;28;20459;-59
2023/09/09 18:35:00;;;;;;;14.32;7.40;;;24.00;76.50;;;;;;10378316;28;20440;-59
2023/09/09 18:40:04;;;;;;;9.60;7.78;;;24.00;76.50;;;;;;10386457;28;20053;-61
2023/09/09 18:45:05;;;;;;;11.68;7.85;;;24.00;76.60;;;;;;10381554;28;20489;-60
2023/09/09 18:50:07;;;;;;;12.48;8.80;;;24.00;76.70;;;;;;10386142;28;20037;-60
2023/09/09 18:55:08;;;;;;;10.25;8.43;;;24.10;76.80;;;;;;10387999;28;20053;-59
2023/09/09 19:00:10;;;;;;;10.60;8.63;;;24.10;76.70;;;;;;10391217;28;20389;-60
2023/09/09 19:05:11;;;;;;;9.48;7.75;;;24.00;76.70;;;;;;10391421;28;20112;-59
2023/09/09 19:10:12;;;;;;;8.02;7.22;;;24.10;76.80;;;;;;10388582;28;20431;-60
2023/09/09 19:15:15;;;;;;;9.88;8.18;;;24.10;76.80;;;;;;10386133;28;20052;-59
2023/09/09 19:20:16;;;;;;;9.68;8.65;;;24.10;76.60;;;;;;10391996;28;20026;-60
2023/09/09 19:25:17;;;;;;;11.73;8.68;;;24.10;76.70;;;;;;10385794;28;20493;-60
2023/09/09 19:30:17;;;;;;;17.85;8.93;;;24.10;76.90;;;;;;10385442;28;20045;-60
2023/09/09 19:35:18;;;;;;;14.55;9.80;;;24.10;76.90;;;;;;10380462;28;20033;-62
2023/09/09 19:40:19;;;;;;;13.98;8.57;;;24.10;77.10;;;;;;10390380;28;20044;-59
2023/09/09 19:45:20;;;;;;;10.30;7.68;;;24.20;77.10;;;;;;10392827;28;20040;-60
2023/09/09 19:50:20;;;;;;;9.65;8.63;;;24.10;77.00;;;;;;10378411;28;20168;-60
2023/09/09 19:55:21;;;;;;;11.00;8.25;;;24.10;77.10;;;;;;10369866;28;20037;-60
2023/09/09 20:00:22;;;;;;;11.05;8.00;;;24.10;77.10;;;;;;10379740;28;20021;-60
2023/09/09 20:05:23;;;;;;;10.10;8.18;;;24.10;77.00;;;;;;10401738;28;20396;-60
2023/09/09 20:10:24;;;;;;;12.70;10.02;;;24.10;77.00;;;;;;10396059;28;20037;-60
2023/09/09 20:15:24;;;;;;;8.93;7.68;;;24.10;77.00;;;;;;10386594;28;20072;-60
2023/09/09 20:20:25;;;;;;;9.05;8.10;;;24.10;76.90;;;;;;10369885;28;20075;-60
2023/09/09 20:25:26;;;;;;;8.00;7.20;;;24.10;76.90;;;;;;10368633;28;20033;-61
2023/09/09 20:30:28;;;;;;;9.23;7.57;;;24.10;77.00;;;;;;10382320;28;20036;-60
2023/09/09 20:35:29;;;;;;;9.40;7.95;;;24.00;76.90;;;;;;10386786;28;20403;-60
2023/09/09 20:40:29;;;;;;;9.13;8.23;;;24.00;76.90;;;;;;10409759;28;20087;-60
2023/09/09 20:45:30;;;;;;;8.00;7.28;;;24.00;76.80;;;;;;10408736;28;20021;-60
2023/09/09 20:50:32;;;;;;;11.57;8.25;;;24.00;76.90;;;;;;10387679;28;20052;-60
2023/09/09 20:55:35;;;;;;;7.95;7.10;;;24.00;76.80;;;;;;10367694;28;20149;-60
2023/09/09 21:00:35;;;;;;;8.20;7.13;;;24.00;76.80;;;;;;10367826;28;20030;-60
2023/09/09 21:05:37;;;;;;;8.75;6.97;;;24.00;76.70;;;;;;10367454;28;20558;-61
2023/09/09 21:10:38;;;;;;;7.50;6.80;;;24.00;76.60;;;;;;10376841;28;20045;-61
2023/09/09 21:15:38;;;;;;;9.50;8.45;;;24.00;76.60;;;;;;10406587;28;20128;-61
2023/09/09 21:20:39;;;;;;;11.38;8.50;;;24.00;76.60;;;;;;10411163;28;20029;-60
2023/09/09 21:25:40;;;;;;;8.63;7.82;;;24.00;76.60;;;;;;10386204;28;20432;-61
2023/09/09 21:30:41;;;;;;;10.40;8.45;;;24.00;76.70;;;;;;10399548;28;20038;-61
2023/09/09 21:35:42;;;;;;;9.23;8.20;;;23.90;76.50;;;;;;10381161;28;20040;-61
2023/09/09 21:40:44;;;;;;;9.57;8.68;;;24.00;76.50;;;;;;10403477;28;20407;-60
2023/09/09 21:45:46;;;;;;;9.63;8.05;;;23.90;76.70;;;;;;10421599;28;20353;-61
2023/09/09 21:50:47;;;;;;;9.35;8.30;;;23.90;77.10;;;;;;10421838;28;20032;-61
2023/09/09 21:55:47;;;;;;;9.93;8.50;;;23.90;76.60;;;;;;10421400;28;20668;-61
2023/09/09 22:00:48;;;;;;;9.32;8.45;;;23.90;76.40;;;;;;10421465;28;20480;-61
2023/09/09 22:05:49;;;;;;;8.95;8.07;;;23.90;76.30;;;;;;10421402;28;20040;-61
2023/09/09 22:10:49;;;;;;;8.75;7.95;;;23.90;76.40;;;;;;10420095;28;20029;-61
2023/09/09 22:15:50;;;;;;;9.60;8.60;;;23.90;76.60;;;;;;10421298;28;20071;-61
2023/09/09 22:20:51;;;;;;;8.68;7.90;;;23.80;76.60;;;;;;10419998;28;20477;-61
2023/09/09 22:25:52;;;;;;;9.10;8.10;;;23.80;76.30;;;;;;10383386;28;20393;-61
2023/09/09 22:30:53;;;;;;;9.48;8.45;;;23.80;76.10;;;;;;10398659;28;20028;-60
2023/09/09 22:35:53;;;;;;;8.68;7.88;;;23.80;76.30;;;;;;10372993;28;20035;-61
2023/09/09 22:40:54;;;;;;;9.48;8.68;;;23.70;76.20;;;;;;10399101;28;20025;-61
2023/09/09 22:45:55;;;;;;;9.27;8.38;;;23.80;76.20;;;;;;10413732;28;20068;-61
2023/09/09 22:50:58;;;;;;;10.07;9.07;;;23.80;76.00;;;;;;10412591;28;20030;-61
2023/09/09 22:56:00;;;;;;;10.07;9.07;;;23.80;75.90;;;;;;10413847;28;20064;-61
2023/09/09 23:01:02;;;;;;;10.63;9.45;;;23.80;75.80;;;;;;10413194;28;20040;-61
2023/09/09 23:06:04;;;;;;;9.75;8.90;;;23.70;75.90;;;;;;10413716;28;20029;-61
2023/09/09 23:11:13;;;;;;;10.18;9.18;;;23.70;75.80;;;;;;10412722;28;20037;-61
2023/09/09 23:16:13;;;;;;;;;;;23.70;75.60;;;;;;10414018;28;20060;-61
2023/09/09 23:21:14;;;;;;;9.13;8.32;;;23.70;75.60;;;;;;10409087;28;19929;-61
2023/09/09 23:26:15;;;;;;;10.43;9.43;;;23.70;75.50;;;;;;10372420;28;20486;-60
2023/09/09 23:31:16;;;;;;;9.27;8.38;;;23.70;75.60;;;;;;10390580;28;20042;-61
2023/09/09 23:36:17;;;;;;;9.77;8.88;;;23.70;75.60;;;;;;10385028;28;20605;-61
2023/09/09 23:41:17;;;;;;;10.38;9.40;;;23.70;75.30;;;;;;10370864;28;20034;-61
2023/09/09 23:46:18;;;;;;;13.00;9.68;;;23.70;75.30;;;;;;10370329;28;20022;-61
2023/09/09 23:51:19;;;;;;;10.43;9.52;;;23.70;75.30;;;;;;10370630;28;20103;-61
2023/09/09 23:56:20;;;;;;;10.05;9.15;;;23.70;75.20;;;;;;10396184;28;20037;-61
